Time;durP1;ratioP1;P1;durP2;ratioP2;P2;SDS_P1;SDS_P2;PMS_P1;PMS_P2;Temp;Humidity;BMP_temperature;BMP_pressure;BME280_temperature;BME280_humidity;BME280_pressure;Samples;Min_cycle;Max_cycle;Signal;HPM_P1;HPM_P2
2024/04/04 00:00:41;;;;;;;;;;;;;;;8.79;97.31;100246.53;5073000;28;19944;-73
2024/04/04 00:03:06;;;;;;;;;;;;;;;8.79;97.44;100254.59;5072283;28;19916;-74
2024/04/04 00:05:32;;;;;;;;;;;;;;;8.77;97.52;100253.94;5073123;28;19917;-73
2024/04/04 00:07:57;;;;;;;;;;;;;;;8.68;97.79;100257.81;5072285;28;19932;-73
2024/04/04 00:10:23;;;;;;;;;;;;;;;8.58;97.84;100258.19;5072118;28;20387;-73
2024/04/04 00:12:49;;;;;;;;;;;;;;;8.57;97.89;100260.06;5072928;28;19916;-73
2024/04/04 00:15:14;;;;;;;;;;;;;;;8.49;97.98;100262.88;5072172;28;20034;-73
2024/04/04 00:17:46;;;;;;;;;;;;;;;8.26;100.00;100263.97;5071975;28;19916;-74
2024/04/04 00:20:15;;;;;;;;;;;;;;;8.27;99.54;100252.22;5073036;28;19920;-72
2024/04/04 00:22:44;;;;;;;;;;;;;;;8.23;100.00;100248.28;5067440;28;20340;-72
2024/04/04 00:25:09;;;;;;;;;;;;;;;8.24;100.00;100255.28;5071823;28;19916;-72
2024/04/04 00:27:34;;;;;;;;;;;;;;;8.07;100.00;100244.03;5072536;28;19919;-72
2024/04/04 00:30:00;;;;;;;;;;;;;;;8.02;100.00;100236.56;5071403;28;19942;-73
2024/04/04 00:32:25;;;;;;;;;;;;;;;8.03;100.00;100232.88;5072145;28;19916;-73
2024/04/04 00:34:50;;;;;;;;;;;;;;;8.08;100.00;100245.69;5073291;28;20289;-72
2024/04/04 00:37:16;;;;;;;;;;;;;;;7.86;100.00;100239.56;5071397;28;19916;-72
2024/04/04 00:39:41;;;;;;;;;;;;;;;7.88;100.00;100246.34;5071982;28;19916;-73
2024/04/04 00:42:06;;;;;;;;;;;;;;;7.70;100.00;100233.44;5072390;28;20471;-75
2024/04/04 00:44:32;;;;;;;;;;;;;;;7.77;100.00;100227.28;5070982;28;20587;-73
2024/04/04 00:46:57;;;;;;;;;;;;;;;7.77;100.00;100236.19;5071900;28;19974;-74
2024/04/04 00:49:22;;;;;;;;;;;;;;;7.70;100.00;100237.97;5072874;28;20292;-73
2024/04/04 00:51:48;;;;;;;;;;;;;;;7.56;100.00;100234.38;5071193;28;19920;-74
2024/04/04 00:54:16;;;;;;;;;;;;;;;7.59;100.00;100225.91;5031120;28;19982;-74
2024/04/04 00:56:41;;;;;;;;;;;;;;;7.64;100.00;100226.19;5053334;28;19916;-73
2024/04/04 00:59:12;;;;;;;;;;;;;;;7.64;100.00;100226.19;5070694;28;19943;-73
2024/04/04 01:01:37;;;;;;;;;;;;;;;7.60;100.00;100216.84;5052888;28;19974;-74
2024/04/04 01:04:03;;;;;;;;;;;;;;;7.55;100.00;100219.31;5054800;28;19920;-77
2024/04/04 01:06:28;;;;;;;;;;;;;;;7.55;100.00;100219.31;5070592;28;19912;-73
2024/04/04 01:08:54;;;;;;;;;;;;;;;7.53;100.00;100216.00;5070832;28;19921;-73
2024/04/04 01:11:19;;;;;;;;;;;;;;;7.47;100.00;100216.75;5072612;28;19973;-73
2024/04/04 01:13:44;;;;;;;;;;;;;;;7.48;100.00;100215.72;5069304;28;19916;-73
2024/04/04 01:16:09;;;;;;;;;;;;;;;7.50;100.00;100213.69;5053671;28;20046;-73
2024/04/04 01:18:35;;;;;;;;;;;;;;;7.49;100.00;100214.72;5072235;28;20386;-73
2024/04/04 01:21:01;;;;;;;;;;;;;;;7.49;100.00;100214.72;5070355;28;20046;-73
2024/04/04 01:23:26;;;;;;;;;;;;;;;7.42;100.00;100203.94;5071231;28;20052;-73
2024/04/04 01:25:51;;;;;;;;;;;;;;;7.37;100.00;100207.19;5072444;28;19916;-73
2024/04/04 01:28:19;;;;;;;;;;;;;;;7.34;100.00;100202.22;5069473;28;19925;-73
2024/04/04 01:30:44;;;;;;;;;;;;;;;7.35;100.00;100190.50;5070966;28;20069;-73
2024/04/04 01:33:09;;;;;;;;;;;;;;;7.33;100.00;100189.84;5071503;28;20368;-73
2024/04/04 01:35:34;;;;;;;;;;;;;;;7.32;100.00;100185.53;5070887;28;19912;-73
2024/04/04 01:38:00;;;;;;;;;;;;;;;7.27;100.00;100191.47;5070449;28;19917;-73
2024/04/04 01:40:28;;;;;;;;;;;;;;;7.33;100.00;100179.16;5070972;28;19922;-73
2024/04/04 01:42:53;;;;;;;;;;;;;;;7.41;100.00;100192.38;5071276;28;20218;-73
2024/04/04 01:45:19;;;;;;;;;;;;;;;7.46;100.00;100191.84;5071308;28;20399;-73
2024/04/04 01:47:44;;;;;;;;;;;;;;;7.51;100.00;100197.41;5070856;28;20394;-73
2024/04/04 01:50:09;;;;;;;;;;;;;;;7.59;100.00;100199.13;5070866;28;20011;-72
2024/04/04 01:52:34;;;;;;;;;;;;;;;7.62;100.00;100188.03;5070738;28;20325;-73
2024/04/04 01:54:59;;;;;;;;;;;;;;;7.69;100.00;100182.72;5070819;28;19920;-73
2024/04/04 01:57:25;;;;;;;;;;;;;;;7.72;100.00;100177.81;5070734;28;19920;-74
2024/04/04 01:59:51;;;;;;;;;;;;;;;7.72;100.00;100177.81;5070945;28;20030;-73
2024/04/04 02:02:16;;;;;;;;;;;;;;;7.77;100.00;100174.56;5070869;28;19957;-74
2024/04/04 02:04:41;;;;;;;;;;;;;;;7.79;100.00;100174.34;5071198;28;20356;-73
2024/04/04 02:07:06;;;;;;;;;;;;;;;7.81;100.00;100172.31;5070650;28;19916;-73
2024/04/04 02:09:32;;;;;;;;;;;;;;;7.78;100.00;100173.53;5088379;28;19920;-73
2024/04/04 02:11:57;;;;;;;;;;;;;;;7.80;100.00;100167.97;5087107;28;19996;-73
2024/04/04 02:14:25;;;;;;;;;;;;;;;7.83;100.00;100168.44;5091927;28;19932;-73
2024/04/04 02:16:50;;;;;;;;;;;;;;;7.83;100.00;100168.44;5092745;28;19980;-73
2024/04/04 02:19:16;;;;;;;;;;;;;;;7.80;100.00;100163.44;5090278;28;19917;-73
2024/04/04 02:21:44;;;;;;;;;;;;;;;7.77;100.00;100163.84;5078341;28;19916;-73
2024/04/04 02:24:09;;;;;;;;;;;;;;;7.75;100.00;100155.16;5075708;28;20003;-73
2024/04/04 02:26:34;;;;;;;;;;;;;;;7.73;100.00;100149.16;5073113;28;19960;-73
2024/04/04 02:28:59;;;;;;;;;;;;;;;7.70;100.00;100147.72;5071442;28;19920;-74
2024/04/04 02:31:25;;;;;;;;;;;;;;;7.67;100.00;100145.44;5071735;28;19916;-74
2024/04/04 02:33:50;;;;;;;;;;;;;;;7.69;100.00;100143.38;5071664;28;19917;-73
2024/04/04 02:36:18;;;;;;;;;;;;;;;7.67;100.00;100148.09;5070418;28;19969;-73
2024/04/04 02:38:43;;;;;;;;;;;;;;;7.63;100.00;100138.78;5071126;28;20270;-73
2024/04/04 02:41:09;;;;;;;;;;;;;;;7.65;100.00;100131.41;5071719;28;19912;-74
2024/04/04 02:43:34;;;;;;;;;;;;;;;7.64;100.00;100129.75;5070119;28;19923;-74
2024/04/04 02:46:03;;;;;;;;;;;;;;;7.64;100.00;100124.38;5070580;28;20360;-73
2024/04/04 02:48:28;;;;;;;;;;;;;;;7.59;100.00;100119.63;5071057;28;19922;-73
2024/04/04 02:50:54;;;;;;;;;;;;;;;7.62;100.00;100115.72;5069655;28;19924;-74
2024/04/04 02:53:19;;;;;;;;;;;;;;;7.66;100.00;100108.94;5070195;28;20007;-73
2024/04/04 02:55:51;;;;;;;;;;;;;;;7.64;100.00;100110.97;5071260;28;20333;-74
2024/04/04 02:58:17;;;;;;;;;;;;;;;7.69;100.00;100108.56;5069837;28;19916;-74
2024/04/04 03:00:42;;;;;;;;;;;;;;;7.72;100.00;100105.50;5067978;28;20007;-73
2024/04/04 03:03:07;;;;;;;;;;;;;;;7.74;100.00;100099.91;5054084;28;19962;-73
2024/04/04 03:05:37;;;;;;;;;;;;;;;7.76;100.00;100097.06;5069897;28;19974;-74
2024/04/04 03:08:03;;;;;;;;;;;;;;;7.74;100.00;100094.56;5069609;28;19932;-73
2024/04/04 03:10:28;;;;;;;;;;;;;;;7.71;100.00;100093.13;5073673;28;19924;-73
2024/04/04 03:12:54;;;;;;;;;;;;;;;7.74;100.00;100089.22;5073008;28;19916;-74
2024/04/04 03:15:19;;;;;;;;;;;;;;;7.72;100.00;100076.03;5073792;28;19923;-74
2024/04/04 03:17:44;;;;;;;;;;;;;;;7.68;100.00;100084.63;5074893;28;19916;-73
2024/04/04 03:20:10;;;;;;;;;;;;;;;7.71;100.00;100074.38;5072755;28;19920;-74
2024/04/04 03:22:35;;;;;;;;;;;;;;;7.76;100.00;100064.91;5073230;28;19920;-73
2024/04/04 03:25:00;;;;;;;;;;;;;;;7.78;100.00;100068.19;5074461;28;19916;-74
2024/04/04 03:27:25;;;;;;;;;;;;;;;7.81;100.00;100062.44;5072591;28;19920;-73
2024/04/04 03:29:51;;;;;;;;;;;;;;;7.79;100.00;100051.94;5073492;28;19962;-73
2024/04/04 03:32:16;;;;;;;;;;;;;;;7.83;100.00;100049.69;5074579;28;19916;-73
2024/04/04 03:34:41;;;;;;;;;;;;;;;7.82;100.00;100045.34;5072637;28;20360;-74
2024/04/04 03:37:06;;;;;;;;;;;;;;;7.82;100.00;100042.66;5073031;28;19923;-74
2024/04/04 03:39:32;;;;;;;;;;;;;;;7.75;100.00;100042.63;5073981;28;19917;-74
2024/04/04 03:41:57;;;;;;;;;;;;;;;7.69;100.00;100033.53;5072829;28;20363;-74
2024/04/04 03:44:22;;;;;;;;;;;;;;;7.68;100.00;100031.88;5073907;28;20383;-74
2024/04/04 03:46:47;;;;;;;;;;;;;;;7.73;100.00;100028.59;5074626;28;20269;-73
2024/04/04 03:49:12;;;;;;;;;;;;;;;7.70;100.00;100019.13;5073417;28;19924;-73
2024/04/04 03:51:38;;;;;;;;;;;;;;;7.72;100.00;100018.91;5072958;28;19951;-73
2024/04/04 03:54:03;;;;;;;;;;;;;;;7.68;100.00;100013.13;5072619;28;19927;-73
2024/04/04 03:56:28;;;;;;;;;;;;;;;7.69;100.00;100006.75;5073199;28;20535;-72
2024/04/04 03:58:54;;;;;;;;;;;;;;;7.68;100.00;99999.75;5072919;28;20002;-73
2024/04/04 04:01:19;;;;;;;;;;;;;;;7.67;100.00;99992.72;5054934;28;19916;-73
2024/04/04 04:03:44;;;;;;;;;;;;;;;7.64;100.00;99992.31;5073048;28;20011;-72
2024/04/04 04:06:10;;;;;;;;;;;;;;;7.65;100.00;99988.59;5072843;28;19927;-72
2024/04/04 04:08:35;;;;;;;;;;;;;;;7.66;100.00;99983.03;5072361;28;19916;-72
2024/04/04 04:11:03;;;;;;;;;;;;;;;7.69;100.00;99985.31;5072267;28;19922;-73
2024/04/04 04:13:28;;;;;;;;;;;;;;;7.70;100.00;99986.97;5072854;28;19917;-72
2024/04/04 04:15:57;;;;;;;;;;;;;;;7.68;100.00;99989.03;5072351;28;19927;-72
2024/04/04 04:18:22;;;;;;;;;;;;;;;7.71;100.00;99977.06;5072315;28;20417;-72
2024/04/04 04:23:31;;;;;;;;;;;;;;;7.62;100.00;99965.69;5066567;28;19962;-73
2024/04/04 04:25:56;;;;;;;;;;;;;;;7.58;100.00;99961.78;5071746;28;19923;-75
2024/04/04 04:28:22;;;;;;;;;;;;;;;7.55;100.00;99957.63;5072832;28;19999;-74
2024/04/04 04:30:47;;;;;;;;;;;;;;;7.57;100.00;99954.78;5070824;28;19916;-74
2024/04/04 04:33:12;;;;;;;;;;;;;;;7.54;100.00;99947.13;5073015;28;19931;-74
2024/04/04 04:35:38;;;;;;;;;;;;;;;7.58;100.00;99941.19;5072193;28;19920;-73
2024/04/04 04:38:03;;;;;;;;;;;;;;;7.60;100.00;99932.94;5072160;28;20359;-74
2024/04/04 04:40:28;;;;;;;;;;;;;;;7.64;100.00;99934.19;5073133;28;19916;-73
2024/04/04 04:42:53;;;;;;;;;;;;;;;7.64;100.00;99933.38;5071822;28;20386;-73
2024/04/04 04:45:20;;;;;;;;;;;;;;;7.65;100.00;99922.44;5071317;28;19916;-76
2024/04/04 04:47:45;;;;;;;;;;;;;;;7.53;100.00;99916.03;5073082;28;19916;-74
2024/04/04 04:50:10;;;;;;;;;;;;;;;7.58;100.00;99922.44;5071019;28;19923;-74
2024/04/04 04:52:36;;;;;;;;;;;;;;;7.67;100.00;99925.75;5071591;28;19917;-74
2024/04/04 04:55:01;;;;;;;;;;;;;;;7.70;100.00;99922.69;5072912;28;19962;-74
2024/04/04 04:57:27;;;;;;;;;;;;;;;7.74;100.00;99920.41;5070474;28;19916;-74
2024/04/04 04:59:52;;;;;;;;;;;;;;;7.79;100.00;99914.44;5071289;28;19966;-73
2024/04/04 05:02:18;;;;;;;;;;;;;;;7.84;100.00;99907.47;5072687;28;19917;-73
2024/04/04 05:04:43;;;;;;;;;;;;;;;7.79;100.00;99896.53;5071306;28;19912;-73
2024/04/04 05:07:08;;;;;;;;;;;;;;;7.84;100.00;99906.63;5071429;28;19965;-73
2024/04/04 05:09:34;;;;;;;;;;;;;;;7.86;100.00;99896.53;5072046;28;19958;-73
2024/04/04 05:11:59;;;;;;;;;;;;;;;7.89;100.00;99898.81;5070138;28;19924;-73
2024/04/04 05:14:24;;;;;;;;;;;;;;;7.93;100.00;99889.38;5070162;28;19917;-73
2024/04/04 05:16:51;;;;;;;;;;;;;;;7.96;100.00;99872.84;5072534;28;19916;-73
2024/04/04 05:19:17;;;;;;;;;;;;;;;7.99;100.00;99888.53;5071296;28;19934;-74
2024/04/04 05:21:45;;;;;;;;;;;;;;;8.04;100.00;99880.72;5071181;28;19920;-73
2024/04/04 05:24:10;;;;;;;;;;;;;;;8.06;100.00;99887.72;5070066;28;19917;-72
2024/04/04 05:26:35;;;;;;;;;;;;;;;8.04;100.00;99883.38;5066172;28;19969;-74
2024/04/04 05:29:01;;;;;;;;;;;;;;;7.98;100.00;99865.44;5071314;28;19921;-74
2024/04/04 05:31:26;;;;;;;;;;;;;;;8.09;100.00;99871.22;5072186;28;20322;-74
2024/04/04 05:33:52;;;;;;;;;;;;;;;8.13;100.00;99867.94;5070644;28;19916;-73
2024/04/04 05:36:17;;;;;;;;;;;;;;;8.14;100.00;99858.03;5071491;28;19961;-73
2024/04/04 05:38:42;;;;;;;;;;;;;;;8.21;100.00;99874.94;5067953;28;19912;-73
2024/04/04 05:41:08;;;;;;;;;;;;;;;8.23;100.00;99867.53;5068017;28;20421;-73
2024/04/04 05:43:33;;;;;;;;;;;;;;;8.28;100.00;99867.75;5069510;28;20405;-73
2024/04/04 05:45:58;;;;;;;;;;;;;;;8.31;100.00;99864.63;5064624;28;20037;-72
2024/04/04 05:48:27;;;;;;;;;;;;;;;8.35;100.00;99865.88;5069442;28;19912;-73
2024/04/04 05:50:58;;;;;;;;;;;;;;;8.39;100.00;99870.81;5068770;28;19920;-73
2024/04/04 05:53:23;;;;;;;;;;;;;;;8.48;100.00;99856.19;5069674;28;19970;-72
2024/04/04 05:55:48;;;;;;;;;;;;;;;8.55;100.00;99859.69;5073774;28;19951;-72
2024/04/04 05:58:13;;;;;;;;;;;;;;;8.62;100.00;99841.75;5069249;28;19927;-72
2024/04/04 06:00:38;;;;;;;;;;;;;;;8.67;100.00;99851.00;5069794;28;19923;-72
2024/04/04 06:03:04;;;;;;;;;;;;;;;8.73;100.00;99856.38;5050781;28;20332;-73
2024/04/04 06:05:29;;;;;;;;;;;;;;;8.78;100.00;99858.44;5049850;28;20065;-73
2024/04/04 06:07:54;;;;;;;;;;;;;;;8.83;100.00;99839.00;5069071;28;20348;-73
2024/04/04 06:10:19;;;;;;;;;;;;;;;8.88;100.00;99848.06;5051175;28;20442;-73
2024/04/04 06:12:45;;;;;;;;;;;;;;;8.91;100.00;99844.97;5069762;28;19916;-72
2024/04/04 06:15:10;;;;;;;;;;;;;;;8.94;100.00;99833.81;5069158;28;19923;-73
2024/04/04 06:17:35;;;;;;;;;;;;;;;8.98;100.00;99836.91;5070369;28;20034;-73
2024/04/04 06:20:01;;;;;;;;;;;;;;;9.02;100.00;99832.75;5069173;28;20386;-73
2024/04/04 06:22:26;;;;;;;;;;;;;;;9.06;100.00;99825.94;5068811;28;19962;-73
2024/04/04 06:24:54;;;;;;;;;;;;;;;9.11;100.00;99827.97;5069913;28;20522;-72
2024/04/04 06:27:19;;;;;;;;;;;;;;;9.15;100.00;99826.53;5069716;28;20000;-73
2024/04/04 06:29:46;;;;;;;;;;;;;;;9.22;100.00;99827.31;5069142;28;19981;-72
2024/04/04 06:32:12;;;;;;;;;;;;;;;9.24;100.00;99814.50;5070381;28;20265;-72
2024/04/04 06:34:37;;;;;;;;;;;;;;;9.28;100.00;99811.38;5069168;28;20366;-73
2024/04/04 06:37:02;;;;;;;;;;;;;;;9.30;100.00;99806.63;5068089;28;19917;-73
2024/04/04 06:39:27;;;;;;;;;;;;;;;9.34;100.00;99813.22;5069651;28;19919;-73
2024/04/04 06:41:54;;;;;;;;;;;;;;;9.37;100.00;99810.06;5069623;28;19912;-73
2024/04/04 06:44:19;;;;;;;;;;;;;;;9.37;100.00;99816.28;5071200;28;19916;-74
2024/04/04 06:46:45;;;;;;;;;;;;;;;9.39;100.00;99806.16;5074174;28;19916;-73
2024/04/04 06:49:10;;;;;;;;;;;;;;;9.38;100.00;99819.78;5073028;28;20007;-73
2024/04/04 06:51:35;;;;;;;;;;;;;;;9.40;100.00;99823.09;5071271;28;20019;-73
2024/04/04 06:54:00;;;;;;;;;;;;;;;9.44;100.00;99808.19;5073479;28;20015;-74
2024/04/04 06:56:25;;;;;;;;;;;;;;;9.44;100.00;99821.63;5073029;28;20019;-73
2024/04/04 06:58:51;;;;;;;;;;;;;;;9.47;100.00;99807.75;5072175;28;19912;-74
2024/04/04 07:01:16;;;;;;;;;;;;;;;9.48;100.00;99811.25;5074290;28;19923;-73
2024/04/04 07:03:41;;;;;;;;;;;;;;;9.48;100.00;99809.41;5073024;28;20002;-73
2024/04/04 07:06:06;;;;;;;;;;;;;;;9.52;100.00;99788.31;5071665;28;20028;-74
2024/04/04 07:08:32;;;;;;;;;;;;;;;9.52;100.00;99793.69;5073767;28;19917;-73
2024/04/04 07:11:00;;;;;;;;;;;;;;;9.53;100.00;99806.88;5071680;28;20028;-73
2024/04/04 07:13:26;;;;;;;;;;;;;;;9.53;100.00;99806.06;5072563;28;19916;-73
2024/04/04 07:16:01;;;;;;;;;;;;;;;9.54;100.00;99799.66;5073072;28;19922;-73
2024/04/04 07:18:26;;;;;;;;;;;;;;;9.58;100.00;99792.00;5071892;28;19950;-73
2024/04/04 07:20:53;;;;;;;;;;;;;;;9.59;100.00;99793.63;5072568;28;19916;-73
2024/04/04 07:23:18;;;;;;;;;;;;;;;9.61;100.00;99794.25;5073416;28;19912;-73
2024/04/04 07:25:48;;;;;;;;;;;;;;;9.64;100.00;99788.44;5071284;28;19916;-74
2024/04/04 07:28:14;;;;;;;;;;;;;;;9.68;100.00;99776.22;5072334;28;19927;-72
2024/04/04 07:30:39;;;;;;;;;;;;;;;9.70;100.00;99796.47;5072807;28;19916;-74
2024/04/04 07:33:04;;;;;;;;;;;;;;;9.73;100.00;99783.63;5071509;28;19998;-73
2024/04/04 07:35:29;;;;;;;;;;;;;;;9.72;100.00;99793.53;5071698;28;19920;-73
2024/04/04 07:37:55;;;;;;;;;;;;;;;9.80;100.00;99789.75;5072868;28;19912;-73
2024/04/04 07:40:20;;;;;;;;;;;;;;;9.82;100.00;99807.34;5071158;28;19912;-73
2024/04/04 07:42:46;;;;;;;;;;;;;;;9.88;100.00;99796.75;5071579;28;19938;-72
2024/04/04 07:45:11;;;;;;;;;;;;;;;9.93;100.00;99799.59;5072825;28;19912;-73
2024/04/04 07:47:36;;;;;;;;;;;;;;;9.98;100.00;99797.91;5071965;28;20193;-73
2024/04/04 07:50:07;;;;;;;;;;;;;;;10.02;100.00;99793.72;5071397;28;19912;-73
2024/04/04 07:52:32;;;;;;;;;;;;;;;10.06;100.00;99793.28;5071428;28;19939;-73
2024/04/04 07:54:57;;;;;;;;;;;;;;;10.07;100.00;99795.75;5070410;28;20356;-72
2024/04/04 07:57:23;;;;;;;;;;;;;;;10.10;100.00;99802.56;5071370;28;20315;-72
2024/04/04 07:59:48;;;;;;;;;;;;;;;10.10;100.00;99806.06;5071445;28;19916;-73
2024/04/04 08:02:13;;;;;;;;;;;;;;;10.13;100.00;99810.22;5071519;28;20499;-73
2024/04/04 08:04:39;;;;;;;;;;;;;;;10.18;100.00;99804.16;5073862;28;19921;-73
2024/04/04 08:07:05;;;;;;;;;;;;;;;10.22;100.00;99781.16;5069083;28;19931;-73
2024/04/04 08:09:30;;;;;;;;;;;;;;;10.21;100.00;99785.72;5070547;28;20338;-73
2024/04/04 08:11:55;;;;;;;;;;;;;;;10.29;100.00;99784.59;5070189;28;19922;-73
2024/04/04 08:14:22;;;;;;;;;;;;;;;10.29;100.00;99798.91;5069958;28;19924;-73
2024/04/04 08:16:48;;;;;;;;;;;;;;;10.32;100.00;99808.38;5071530;28;19994;-73
2024/04/04 08:19:13;;;;;;;;;;;;;;;10.35;100.00;99801.72;5071158;28;19924;-74
2024/04/04 08:21:38;;;;;;;;;;;;;;;10.39;100.00;99798.41;5070731;28;19999;-74
2024/04/04 08:24:04;;;;;;;;;;;;;;;10.42;100.00;99803.34;5071227;28;19990;-74
2024/04/04 08:26:29;;;;;;;;;;;;;;;10.43;100.00;99802.28;5070952;28;19974;-72
2024/04/04 08:28:54;;;;;;;;;;;;;;;10.45;100.00;99802.91;5070112;28;20235;-72
2024/04/04 08:31:20;;;;;;;;;;;;;;;10.52;100.00;99802.03;5071937;28;19927;-73
2024/04/04 08:33:46;;;;;;;;;;;;;;;10.57;100.00;99802.19;5070562;28;19917;-73
2024/04/04 08:36:11;;;;;;;;;;;;;;;10.60;100.00;99815.16;5070350;28;19919;-73
2024/04/04 08:38:36;;;;;;;;;;;;;;;10.63;100.00;99820.09;5071385;28;19924;-73
2024/04/04 08:41:08;;;;;;;;;;;;;;;10.67;100.00;99824.00;5071105;28;19916;-73
2024/04/04 08:43:33;;;;;;;;;;;;;;;10.71;100.00;99833.28;5068845;28;19916;-73
2024/04/04 08:46:01;;;;;;;;;;;;;;;10.77;100.00;99831.56;5053454;28;20488;-73
2024/04/04 08:48:27;;;;;;;;;;;;;;;10.72;100.00;99832.25;5053387;28;19950;-73
2024/04/04 08:50:52;;;;;;;;;;;;;;;10.85;100.00;99827.75;5052496;28;19916;-72
2024/04/04 08:53:27;;;;;;;;;;;;;;;10.87;100.00;99828.34;5072464;28;19923;-72
2024/04/04 08:55:55;;;;;;;;;;;;;;;10.80;100.00;99828.44;5070377;28;19920;-72
2024/04/04 08:58:23;;;;;;;;;;;;;;;10.84;100.00;99823.41;5069746;28;19958;-72
2024/04/04 09:00:49;;;;;;;;;;;;;;;10.79;100.00;99839.41;5071799;28;20031;-74
2024/04/04 09:03:18;;;;;;;;;;;;;;;10.95;100.00;99833.44;5070514;28;20335;-73
2024/04/04 09:05:47;;;;;;;;;;;;;;;10.87;100.00;99842.63;5069476;28;20031;-72
2024/04/04 09:08:12;;;;;;;;;;;;;;;11.03;100.00;99830.44;5071181;28;19916;-72
2024/04/04 09:10:38;;;;;;;;;;;;;;;11.05;100.00;99839.13;5068416;28;19924;-72
2024/04/04 09:13:04;;;;;;;;;;;;;;;10.99;100.00;99839.22;5070402;28;20407;-72
2024/04/04 09:15:29;;;;;;;;;;;;;;;10.83;100.00;99846.00;5071434;28;19912;-72
2024/04/04 09:18:01;;;;;;;;;;;;;;;10.96;100.00;99853.94;5067654;28;19916;-72
2024/04/04 09:20:26;;;;;;;;;;;;;;;11.02;100.00;99847.66;5069772;28;19920;-75
2024/04/04 09:22:58;;;;;;;;;;;;;;;10.95;100.00;99852.28;5069972;28;19954;-73
2024/04/04 09:25:26;;;;;;;;;;;;;;;10.85;100.00;99843.91;5068560;28;19955;-72
2024/04/04 09:27:51;;;;;;;;;;;;;;;10.85;100.00;99849.28;5070478;28;19976;-73
2024/04/04 09:30:17;;;;;;;;;;;;;;;10.83;100.00;99854.06;5070995;28;19938;-73
2024/04/04 09:32:42;;;;;;;;;;;;;;;10.86;100.00;99846.38;5069181;28;19927;-73
2024/04/04 09:35:08;;;;;;;;;;;;;;;10.89;100.00;99848.63;5051404;28;19916;-76
2024/04/04 09:37:37;;;;;;;;;;;;;;;10.83;100.00;99867.53;5053498;28;19962;-74
2024/04/04 09:40:05;;;;;;;;;;;;;;;10.90;100.00;99868.31;5068691;28;19963;-73
2024/04/04 09:42:30;;;;;;;;;;;;;;;10.91;100.00;99870.75;5052797;28;19944;-75
2024/04/04 09:44:56;;;;;;;;;;;;;;;11.07;100.00;99861.28;5070693;28;19974;-74
2024/04/04 09:47:21;;;;;;;;;;;;;;;11.21;100.00;99861.13;5069009;28;19927;-78
2024/04/04 09:49:47;;;;;;;;;;;;;;;11.21;100.00;99870.00;5069825;28;20387;-72
2024/04/04 09:52:12;;;;;;;;;;;;;;;11.37;100.00;99857.81;5070951;28;19913;-73
2024/04/04 09:54:41;;;;;;;;;;;;;;;11.46;100.00;99865.59;5050331;28;19959;-72
2024/04/04 09:57:06;;;;;;;;;;;;;;;11.35;100.00;99867.16;5052876;28;19943;-72
2024/04/04 09:59:31;;;;;;;;;;;;;;;11.51;100.00;99873.78;5071011;28;20332;-72
2024/04/04 10:02:03;;;;;;;;;;;;;;;11.75;100.00;99882.00;5051163;28;19924;-71
2024/04/04 10:04:47;;;;;;;;;;;;;;;11.70;100.00;99879.16;5069506;28;20356;-71
2024/04/04 10:07:13;;;;;;;;;;;;;;;11.92;100.00;99885.69;5069789;28;20276;-70
2024/04/04 10:09:38;;;;;;;;;;;;;;;11.82;100.00;99886.25;5069512;28;19917;-71
2024/04/04 10:12:10;;;;;;;;;;;;;;;12.05;100.00;99882.00;5069456;28;19920;-70
2024/04/04 10:14:36;;;;;;;;;;;;;;;12.08;100.00;99878.84;5069537;28;20424;-70
2024/04/04 10:17:05;;;;;;;;;;;;;;;12.30;100.00;99877.47;5069489;28;19924;-70
2024/04/04 10:19:32;;;;;;;;;;;;;;;12.39;100.00;99867.97;5072209;28;19924;-70
2024/04/04 10:22:02;;;;;;;;;;;;;;;12.44;100.00;99868.91;5073317;28;20302;-70
2024/04/04 10:24:27;;;;;;;;;;;;;;;12.53;100.00;99863.16;5072938;28;19923;-70
2024/04/04 10:26:54;;;;;;;;;;;;;;;12.44;100.00;99866.19;5073014;28;20011;-71
2024/04/04 10:29:19;;;;;;;;;;;;;;;12.59;100.00;99854.94;5072888;28;19916;-71
2024/04/04 10:31:47;;;;;;;;;;;;;;;12.36;100.00;99863.88;5073408;28;19923;-72
2024/04/04 10:34:13;;;;;;;;;;;;;;;12.43;100.00;99861.06;5072838;28;19916;-71
2024/04/04 10:36:45;;;;;;;;;;;;;;;12.30;100.00;99866.69;5073403;28;20229;-72
2024/04/04 10:39:13;;;;;;;;;;;;;;;12.45;100.00;99848.16;5071608;28;19939;-72
2024/04/04 10:41:41;;;;;;;;;;;;;;;12.38;100.00;99855.53;5072829;28;20446;-72
2024/04/04 10:44:13;;;;;;;;;;;;;;;12.04;100.00;99849.84;5091943;28;19916;-72
2024/04/04 10:46:48;;;;;;;;;;;;;;;12.13;100.00;99848.47;5093672;28;19916;-70
2024/04/04 10:49:13;;;;;;;;;;;;;;;11.93;100.00;99871.16;5091947;28;19916;-71
2024/04/04 10:51:40;;;;;;;;;;;;;;;11.89;100.00;99869.16;5093579;28;19911;-71
2024/04/04 10:54:08;;;;;;;;;;;;;;;11.74;100.00;99869.56;5090130;28;20440;-70
2024/04/04 10:56:33;;;;;;;;;;;;;;;11.67;100.00;99893.91;5056458;28;19920;-71
2024/04/04 10:58:59;;;;;;;;;;;;;;;11.50;100.00;99909.88;5057269;28;19919;-71
2024/04/04 11:01:24;;;;;;;;;;;;;;;11.22;100.00;99905.88;5053863;28;19924;-71
2024/04/04 11:03:53;;;;;;;;;;;;;;;10.78;100.00;99908.59;5069236;28;20407;-71
2024/04/04 11:06:20;;;;;;;;;;;;;;;10.58;100.00;99919.56;5073692;28;20023;-71
2024/04/04 11:08:46;;;;;;;;;;;;;;;10.76;100.00;99930.38;5071309;28;19943;-71
2024/04/04 11:11:12;;;;;;;;;;;;;;;11.16;100.00;99918.38;5072100;28;19920;-72
2024/04/04 11:13:39;;;;;;;;;;;;;;;11.47;100.00;99911.16;5071189;28;19912;-72
2024/04/04 11:16:04;;;;;;;;;;;;;;;11.85;100.00;99932.69;5073061;28;20038;-73
2024/04/04 11:18:29;;;;;;;;;;;;;;;12.16;100.00;99923.56;5071666;28;20477;-73
2024/04/04 11:20:54;;;;;;;;;;;;;;;12.50;100.00;99904.97;5072781;28;19961;-73
2024/04/04 11:23:20;;;;;;;;;;;;;;;13.17;94.28;99927.25;5073033;28;19912;-73
2024/04/04 11:25:45;;;;;;;;;;;;;;;14.28;87.39;99933.50;5052202;28;19916;-72
2024/04/04 11:28:10;;;;;;;;;;;;;;;14.70;85.73;99924.19;5072065;28;19973;-72
2024/04/04 11:30:35;;;;;;;;;;;;;;;15.43;78.95;99947.69;5071409;28;19920;-73
2024/04/04 11:33:01;;;;;;;;;;;;;;;15.75;79.06;99946.97;5071187;28;19969;-72
2024/04/04 11:35:27;;;;;;;;;;;;;;;15.79;74.56;99945.41;5072430;28;19916;-72
2024/04/04 11:37:52;;;;;;;;;;;;;;;14.20;80.37;99931.19;5072093;28;19973;-72
2024/04/04 11:40:19;;;;;;;;;;;;;;;14.56;78.95;99934.50;5070761;28;19924;-72
2024/04/04 11:42:44;;;;;;;;;;;;;;;14.37;80.18;99955.59;5072470;28;19927;-72
2024/04/04 11:45:10;;;;;;;;;;;;;;;14.17;79.48;99945.19;5072100;28;19916;-72
2024/04/04 11:47:35;;;;;;;;;;;;;;;14.15;77.58;99948.16;5072600;28;20505;-73
2024/04/04 11:50:00;;;;;;;;;;;;;;;13.66;81.46;99954.00;5072562;28;19912;-73
2024/04/04 11:52:27;;;;;;;;;;;;;;;12.98;84.57;99961.69;5072094;28;19921;-73
2024/04/04 11:54:52;;;;;;;;;;;;;;;13.02;86.53;99963.69;5071354;28;20295;-73
2024/04/04 11:57:20;;;;;;;;;;;;;;;13.34;86.09;99965.19;5071054;28;19999;-73
2024/04/04 11:59:45;;;;;;;;;;;;;;;13.68;82.21;99957.28;5072397;28;19912;-73
2024/04/04 12:02:11;;;;;;;;;;;;;;;13.67;79.77;99974.56;5072010;28;20385;-72
2024/04/04 12:04:42;;;;;;;;;;;;;;;14.27;79.30;99974.34;5072018;28;20419;-73
2024/04/04 12:07:07;;;;;;;;;;;;;;;14.34;78.30;99994.78;5071390;28;20383;-73
2024/04/04 12:09:32;;;;;;;;;;;;;;;13.99;78.20;99984.94;5071409;28;20390;-72
2024/04/04 12:11:57;;;;;;;;;;;;;;;13.67;79.87;99985.38;5071715;28;19912;-72
2024/04/04 12:14:23;;;;;;;;;;;;;;;13.59;81.20;99994.69;5071932;28;19912;-72
2024/04/04 12:16:50;;;;;;;;;;;;;;;14.48;80.80;99999.88;5071815;28;19916;-72
2024/04/04 12:19:27;;;;;;;;;;;;;;;14.89;74.35;99999.78;5071146;28;19970;-73
2024/04/04 12:21:53;;;;;;;;;;;;;;;14.64;75.03;100012.66;5073974;28;20295;-73
2024/04/04 12:24:19;;;;;;;;;;;;;;;14.36;73.33;100003.47;5072123;28;19916;-72
2024/04/04 12:26:45;;;;;;;;;;;;;;;14.35;73.27;100001.84;5073291;28;19968;-72
2024/04/04 12:29:11;;;;;;;;;;;;;;;14.73;72.38;100004.97;5072410;28;19913;-73
2024/04/04 12:31:36;;;;;;;;;;;;;;;14.46;72.84;100012.88;5073436;28;20322;-73
2024/04/04 12:34:03;;;;;;;;;;;;;;;14.10;75.33;100013.84;5071079;28;20038;-73
2024/04/04 12:36:28;;;;;;;;;;;;;;;13.74;77.07;100018.53;5072667;28;20473;-73